09h59 EDT


 

Suivi/Infos de l'aéroport


-ou-


 

Suivi des vols en temps réelTradewind #27 ✈ 15-06-2013 ✈ KBOS - KHPN

Thumbnail
Tradewind 27
GPD27 · "Goodspeed" (tous les vols)
Int'l Logan ()
Westchester County ()
00h21 EDT
00h38 EDT
Prévu: 00h34 EDT
Prévu: 01h34 EDT
Durée: 17 minutes
samedi, 15 juin 2013
Statut A atterri il y a plus d'un an. (journal de vol & graphique)
Avion Pilatus PC-12 (monoturbopropulseur) (PC12/T – photos)
Vitesse Plan de vol: 144 kts (graphique)
Altitude (graphique)
Distance En ligne droite 267 km    Parcourue 267 km
TarifAverage: $240.02 (Aperçu sur les compagnies aériennes)
Route n/a
JOURNAL DE L'ACTIVITE
Vous voulez une recherche complète sur l'historique de GPD27 depuis 1998? Achetez maintenant. Recevez-le dans l'heure.
Date Avion Provenance Destination Départ Arrivée Durée
01-08-2014 PC12Int'l Bradley ()Waterbury-Oxford () 09h10 EDT 09h20 EDT Prévue
01-08-2014 PC12Waterbury-Oxford ()Int'l Bradley () 08h40 EDT 08h51 EDT Prévue
31-07-2014 PC12Nantucket Memorial ()Waterbury-Oxford () 20h22 EDT 21h03 EDT 0:40
31-07-2014 PC12Teterboro ()Nantucket Memorial () 19h10 EDT 19h55 EDT 0:45
31-07-2014 PC12Nantucket Memorial ()Teterboro () 17h03 EDT 17h56 EDT 0:53
31-07-2014 PC12/LTeterboro ()Nantucket Memorial () 15h55 EDT 16h40 EDT 0:45
31-07-2014 PC12/LNantucket Memorial ()Teterboro () 14h02 EDT 14h53 EDT 0:51
31-07-2014 PC12/LTeterboro ()Nantucket Memorial () 12h25 EDT 13h08 EDT 0:43
31-07-2014 PC12/LWaterbury-Oxford ()Teterboro () 11h10 EDT 11h47 EDT (?) 0:37
30-07-2014 PC12/GMartha's Vineyard ()Waterbury-Oxford () 19h13 EDT 19h42 EDT 0:29
30-07-2014 PC12/GInt'l John-F.-Kennedy ()Martha's Vineyard () 18h14 EDT 18h54 EDT 0:40
30-07-2014 PC12/GProvincetown Muni ()Int'l John-F.-Kennedy () 14h17 EDT 14h33 EDT (?) 0:16
30-07-2014 PC12Marshfield Muni ()Int'l John-F.-Kennedy () 14h16 EDT 15h13 EDT 0:57
30-07-2014 PC12/GWestchester County ()Provincetown Muni () 13h05 EDT 13h47 EDT 0:41
29-07-2014 PC12Cape Cod Coast Guard Air Station ()Waterbury-Oxford () 19h01 EDT 19h40 EDT (?) 0:39
29-07-2014 PC12/GWestchester County ()Martha's Vineyard () 18h11 EDT 18h40 EDT (?) 0:28
29-07-2014 PC12/GDoylestown ()Westchester County () 13h41 EDT 14h17 EDT (?) 0:35
29-07-2014 PC12Int'l de Philadelphie ()Westchester County () 13h36 EDT 14h12 EDT 0:35
29-07-2014 PC12/GMartha's Vineyard ()Doylestown () 12h11 EDT 13h09 EDT 0:58
29-07-2014 PC12/GWaterbury-Oxford ()Martha's Vineyard () 10h26 EDT 10h55 EDT (?) 0:28
28-07-2014 PC12Nantucket Memorial ()Teterboro () 18h12 EDT 19h17 EDT 1:05
28-07-2014 PC12/GTeterboro ()Nantucket Memorial () 16h32 EDT 17h31 EDT 0:58
28-07-2014 PC12/GNantucket Memorial ()Teterboro () 14h58 EDT 15h56 EDT 0:58
28-07-2014 UnknownTeterboro ()Nantucket Memorial () 12h12 EDT 13h05 EDT (?) 0:53
28-07-2014 PC12East Hampton ()Nantucket Memorial () 12h12 EDT 13h03 EDT 0:51
28-07-2014 PC12Martha's Vineyard ()Teterboro () 10h10 EDT 11h10 EDT 1:00
28-07-2014 PC12/GTeterboro ()Martha's Vineyard () 08h09 EDT 08h55 EDT 0:46
28-07-2014 PC12/GMartha's Vineyard ()Teterboro () 06h23 EDT 07h23 EDT 1:00
28-07-2014 PC12/GWaterbury-Oxford ()Martha's Vineyard () 04h44 EDT 05h41 EDT 0:57
27-07-2014 PC12Nantucket Memorial ()Westchester County () 20h06 EDT 20h58 EDT 0:52
27-07-2014 PC12Westchester County ()Nantucket Memorial () 17h59 EDT 18h46 EDT 0:47
27-07-2014 PC12Nantucket Memorial ()Westchester County () 16h44 EDT 17h32 EDT 0:48
27-07-2014 PC12/GBlock Island State ()Nantucket Memorial () 15h04 EDT 15h33 EDT (?) 0:29
27-07-2014 PC12Waterbury-Oxford ()Nantucket Memorial () 15h04 EDT 15h35 EDT 0:31
27-07-2014 PC12/GBlock Island State ()Westchester County () 15h04 EDT Dérouté
27-07-2014 PC12/GRepublic ()Waterbury-Oxford () 00h02 EDT 00h23 EDT (?) 0:20
26-07-2014 PC12/GChatham Muni ()Republic () 22h45 EDT 23h32 EDT 0:47
26-07-2014 PC12/GGroton-New London ()Chatham Muni () 14h56 EDT 15h20 EDT (?) 0:23
26-07-2014 PC12/GRepublic ()Chatham Muni () 14h53 EDT 14h27 EDT (?) 0:08
25-07-2014 PC12Nantucket Memorial ()Waterbury-Oxford () 20h28 EDT 21h17 EDT 0:49
25-07-2014 PC12/GWestchester County ()Nantucket Memorial () 19h11 EDT 19h42 EDT (?) 0:31
25-07-2014 UnknownIgor I Sikorsky Memorial ()Nantucket Memorial () 19h10 EDT 19h46 EDT 0:36
25-07-2014 PC12/GNantucket Memorial ()Westchester County () 17h33 EDT 18h18 EDT 0:45
25-07-2014 PC12/GBethel Rgnl ()Westchester County () 12h43 EDT 13h45 EDT 1:02
25-07-2014 PC12/GWaterbury-Oxford ()Bethel Rgnl () 11h24 EDT 12h01 EDT (?) 0:36
25-07-2014 PC12R CTR 179 23Bethel Rgnl () 15h18 UTC 12h14 EDT 0:55
24-07-2014 PC12/GNantucket Memorial ()Waterbury-Oxford () 20h10 EDT 20h49 EDT 0:39
24-07-2014 PC12/GWestchester County ()Nantucket Memorial () 18h49 EDT 19h37 EDT 0:48
24-07-2014 PC12/GNantucket Memorial ()Westchester County () 13h58 EDT 14h51 EDT 0:53
24-07-2014 PC12R BDR 162 6Nantucket Memorial () 16h13 UTC 13h18 EDT 1:04
24-07-2014 PC12Int'l Logan ()Waterbury-Oxford () 08h43 EDT 09h18 EDT 0:35
23-07-2014 PC12/GWestchester County ()Int'l Logan () 16h09 EDT 16h51 EDT (?) 0:42
23-07-2014 PC12Igor I Sikorsky Memorial ()Int'l Logan () 16h04 EDT 16h52 EDT 0:47
22-07-2014 PC12/GNantucket Memorial ()Westchester County () 18h06 EDT 18h50 EDT 0:44
22-07-2014 UnknownPrès de Bridgeport, CTNantucket Memorial () 12h52 UTC 09h57 EDT 1:04
22-07-2014 PC12/GWaterbury-Oxford ()Westchester County () 07h29 EDT 07h53 EDT 0:24
21-07-2014 PC12/GEast Hampton ()Waterbury-Oxford () 15h57 EDT 16h13 EDT 0:16
21-07-2014 PC12/GInt'l Newark Liberty ()East Hampton () 14h47 EDT 15h13 EDT 0:26
21-07-2014 PC12/GWestchester County ()Int'l Newark Liberty () 12h22 EDT 12h45 EDT 0:22
21-07-2014 PC12Martha's Vineyard ()Westchester County () 09h59 EDT 10h43 EDT 0:44
21-07-2014 PC12/GWestchester County ()Martha's Vineyard () 08h07 EDT 08h50 EDT (?) 0:42
21-07-2014 PC12Près de Bridgeport, CTMartha's Vineyard () 12h01 UTC 08h47 EDT 0:46
21-07-2014 PC12/GMartha's Vineyard ()Westchester County () 06h12 EDT 06h59 EDT 0:47
21-07-2014 PC12/GWaterbury-Oxford ()Martha's Vineyard () 04h43 EDT 05h22 EDT 0:39
20-07-2014 PC12/LMorristown Muni ()Waterbury-Oxford () 22h18 EDT 21h39 EDT (?) n/a
20-07-2014 PC12Nantucket Memorial ()Morristown Muni () 20h46 EDT 21h51 EDT 1:05
20-07-2014 PC12/LWestchester County ()Nantucket Memorial () 19h20 EDT 18h59 EDT (?) n/a
20-07-2014 PC12Westchester County ()Nantucket Memorial () 19h14 EDT 20h08 EDT 0:54
20-07-2014 PC12/LNantucket Memorial ()Westchester County () 17h16 EDT 18h14 EDT 0:58
18-07-2014 PC12Près de Bridgeport, CTNantucket Memorial () 23h36 UTC 20h20 EDT 0:44
18-07-2014 PC12R FMH 127 15Westchester County () 21h23 UTC 18h05 EDT 0:42
18-07-2014 UnknownPrès de Bridgeport, CTNantucket Memorial () 19h52 UTC 16h37 EDT 0:45
18-07-2014 PC12Nantucket Memorial ()Westchester County () 14h11 EDT 15h06 EDT 0:55
18-07-2014 PC12Igor I Sikorsky Memorial ()Nantucket Memorial () 12h47 EDT 13h34 EDT 0:47
18-07-2014 PC12Nantucket Memorial ()Westchester County () 10h53 EDT 11h48 EDT (?) 0:55
18-07-2014 PC12/TWestchester County ()Nantucket Memorial () 09h37 EDT 10h16 EDT 0:39
Les membres inscrits (l'inscription est gratuite et facile!) voient 4 months d'historique. S'inscrire